createdAt,value
2023-02-06T00:02:59.986Z,11.47
2023-02-06T00:08:07.214Z,11.50
2023-02-06T00:13:12.247Z,11.83
2023-02-06T00:18:19.867Z,11.63
2023-02-06T00:23:24.801Z,11.57
2023-02-06T00:28:29.838Z,12.77
2023-02-06T00:33:38.653Z,12.90
2023-02-06T00:38:43.933Z,13.57
2023-02-06T00:43:49.070Z,13.40
2023-02-06T00:48:56.890Z,12.30
2023-02-06T00:54:01.800Z,13.33
2023-02-06T00:59:06.919Z,14.00
2023-02-06T01:04:14.406Z,11.40
2023-02-06T01:09:19.391Z,11.67
2023-02-06T01:14:24.712Z,11.23
2023-02-06T01:19:32.377Z,10.60
2023-02-06T01:24:37.387Z,9.97
2023-02-06T01:29:42.630Z,9.70
2023-02-06T01:34:50.214Z,10.07
2023-02-06T01:39:56.945Z,9.93
2023-02-06T01:45:37.744Z,11.33
2023-02-06T01:50:49.594Z,10.43
2023-02-06T01:55:57.268Z,9.70
2023-02-06T02:01:03.798Z,9.47
2023-02-06T02:06:14.910Z,10.27
2023-02-06T02:11:23.322Z,9.23
2023-02-06T02:16:35.847Z,9.63
2023-02-06T02:22:27.613Z,9.93
2023-02-06T02:28:08.237Z,9.50
2023-02-06T02:33:29.021Z,10.47
2023-02-06T02:38:48.105Z,10.63
2023-02-06T02:43:58.945Z,10.43
2023-02-06T02:49:07.617Z,10.73
2023-02-06T02:54:16.166Z,10.33
2023-02-06T02:59:26.905Z,10.03
2023-02-06T03:04:37.880Z,9.70
2023-02-06T03:09:56.167Z,10.03
2023-02-06T03:15:06.756Z,10.37
2023-02-06T03:20:14.570Z,9.20
2023-02-06T03:25:31.260Z,9.77
2023-02-06T03:30:38.997Z,9.07
2023-02-06T03:35:45.232Z,9.27
2023-02-06T03:40:54.362Z,8.70
2023-02-06T03:46:03.006Z,9.10
2023-02-06T03:51:14.878Z,11.10
2023-02-06T03:56:30.981Z,10.07
2023-02-06T04:01:36.192Z,8.57
2023-02-06T04:06:41.113Z,9.77
2023-02-06T04:11:49.203Z,9.20
2023-02-06T04:16:54.513Z,9.83
2023-02-06T04:21:59.909Z,8.90
2023-02-06T04:27:07.528Z,9.10
2023-02-06T04:32:12.708Z,10.50
2023-02-06T04:37:17.679Z,8.80
2023-02-06T04:42:26.172Z,8.77
2023-02-06T04:47:31.136Z,9.03
2023-02-06T04:52:36.334Z,9.93
2023-02-06T04:57:44.068Z,8.90
2023-02-06T05:02:49.243Z,8.63
2023-02-06T05:07:54.103Z,11.73
2023-02-06T05:13:01.532Z,11.40
2023-02-06T05:18:07.649Z,11.17
2023-02-06T05:23:12.922Z,10.43
2023-02-06T05:28:21.387Z,9.50
2023-02-06T05:33:26.732Z,11.13
2023-02-06T05:38:33.479Z,10.13
2023-02-06T05:43:41.032Z,14.03
2023-02-06T05:48:45.922Z,12.27
2023-02-06T05:53:51.024Z,12.00
2023-02-06T05:58:58.635Z,11.20
2023-02-06T06:04:03.583Z,12.53
2023-02-06T06:09:08.748Z,11.50
2023-02-06T06:14:16.673Z,10.33
2023-02-06T06:19:21.804Z,10.50
2023-02-06T06:24:28.097Z,11.20
2023-02-06T06:29:42.080Z,12.70
2023-02-06T06:34:48.574Z,13.93
2023-02-06T06:39:58.154Z,15.33
2023-02-06T06:45:05.765Z,17.23
2023-02-06T06:50:11.400Z,17.00
2023-02-06T06:55:17.447Z,13.87
2023-02-06T07:00:25.158Z,13.63
2023-02-06T07:05:30.228Z,13.07
2023-02-06T07:10:35.137Z,13.00
2023-02-06T07:15:42.683Z,27.57
2023-02-06T07:20:48.342Z,12.70
2023-02-06T07:25:54.073Z,12.73
2023-02-06T07:31:03.240Z,11.63
2023-02-06T07:36:12.228Z,12.17
2023-02-06T07:41:18.459Z,11.00
2023-02-06T07:46:29.345Z,12.43
2023-02-06T07:51:34.464Z,11.70
2023-02-06T07:56:40.196Z,12.90
2023-02-06T08:01:48.079Z,12.83
2023-02-06T08:06:54.009Z,12.10
2023-02-06T08:11:58.942Z,11.93
2023-02-06T08:17:07.745Z,12.50
2023-02-06T08:22:12.657Z,12.97
2023-02-06T08:27:18.005Z,12.00
2023-02-06T08:32:28.721Z,12.83
2023-02-06T08:37:35.109Z,12.37
2023-02-06T08:42:40.228Z,12.27
2023-02-06T08:47:48.867Z,12.70
2023-02-06T08:52:53.741Z,12.97
2023-02-06T08:58:00.475Z,13.90
2023-02-06T09:03:08.381Z,12.73
2023-02-06T09:08:13.481Z,14.60
2023-02-06T09:13:18.460Z,12.77
2023-02-06T09:18:26.192Z,13.17
2023-02-06T09:23:31.293Z,12.83
2023-02-06T09:28:36.807Z,13.13
2023-02-06T09:33:44.348Z,14.77
2023-02-06T09:38:56.138Z,14.37
2023-02-06T09:44:04.482Z,14.40
2023-02-06T09:49:18.176Z,14.60
2023-02-06T09:54:34.195Z,20.00
2023-02-06T09:59:48.393Z,19.03
2023-02-06T10:05:01.525Z,15.93
2023-02-06T10:10:14.296Z,14.73
2023-02-06T10:15:24.471Z,16.67
2023-02-06T10:20:36.254Z,17.30
2023-02-06T10:25:53.688Z,14.40
2023-02-06T10:31:11.441Z,17.13
2023-02-06T10:36:37.678Z,13.73
2023-02-06T10:41:51.518Z,14.33
2023-02-06T10:46:57.984Z,14.17
2023-02-06T10:52:17.410Z,13.97
2023-02-06T10:57:25.100Z,17.17
2023-02-06T11:02:58.173Z,16.73
2023-02-06T11:08:38.507Z,10.43
2023-02-06T11:13:46.634Z,11.47
2023-02-06T11:18:54.434Z,10.73
2023-02-06T11:24:16.712Z,12.43
2023-02-06T11:29:24.408Z,14.40
2023-02-06T11:34:37.812Z,12.97
2023-02-06T11:39:48.424Z,12.70
2023-02-06T11:45:04.150Z,13.73
2023-02-06T11:50:29.211Z,12.87
2023-02-06T11:55:38.310Z,10.37
2023-02-06T12:00:46.266Z,11.20
2023-02-06T12:05:51.688Z,11.50
2023-02-06T12:11:07.745Z,11.73
2023-02-06T12:16:19.150Z,10.57
2023-02-06T12:21:34.662Z,11.73
2023-02-06T12:26:43.855Z,11.80
2023-02-06T12:31:56.239Z,12.47
2023-02-06T12:37:14.149Z,11.47
2023-02-06T12:42:45.627Z,11.10
2023-02-06T12:47:56.550Z,11.30
2023-02-06T12:53:07.858Z,11.27
2023-02-06T12:58:54.710Z,8.93
2023-02-06T13:04:01.779Z,7.57
2023-02-06T13:09:09.595Z,7.03
2023-02-06T13:14:26.293Z,8.20
2023-02-06T13:19:56.515Z,6.90
2023-02-06T13:25:01.898Z,7.10
2023-02-06T13:30:41.746Z,6.53
2023-02-06T13:36:11.566Z,5.83
2023-02-06T13:41:31.560Z,4.93
2023-02-06T13:52:36.593Z,7.03
2023-02-06T13:58:20.198Z,6.43
2023-02-06T14:03:43.146Z,6.47
2023-02-06T14:09:03.189Z,7.23
2023-02-06T14:14:28.482Z,6.77
2023-02-06T14:19:41.735Z,7.57
2023-02-06T14:25:13.650Z,7.40
2023-02-06T14:30:30.214Z,9.13
2023-02-06T14:35:55.596Z,7.67
2023-02-06T14:41:04.225Z,9.97
2023-02-06T14:46:16.655Z,9.73
2023-02-06T14:51:26.826Z,10.30
2023-02-06T14:56:37.167Z,10.43
2023-02-06T15:01:42.933Z,8.67
2023-02-06T15:06:54.597Z,9.97
2023-02-06T15:12:04.734Z,9.57
2023-02-06T15:17:09.682Z,9.23
2023-02-06T15:22:17.912Z,8.93
2023-02-06T15:27:30.936Z,8.70
2023-02-06T15:32:37.956Z,8.77
2023-02-06T15:37:43.626Z,9.73
2023-02-06T15:42:51.787Z,9.37
2023-02-06T15:47:58.371Z,9.93
2023-02-06T15:53:03.315Z,10.20
2023-02-06T15:58:17.269Z,9.93
2023-02-06T16:03:25.723Z,9.17
2023-02-06T16:08:34.872Z,9.87
2023-02-06T16:13:42.875Z,10.23
2023-02-06T16:18:51.965Z,10.63
2023-02-06T16:24:07.765Z,10.73
2023-02-06T16:29:29.688Z,11.03
2023-02-06T16:34:39.037Z,11.93
2023-02-06T16:39:45.896Z,11.10
2023-02-06T16:44:55.626Z,11.87
2023-02-06T16:50:00.535Z,12.50
2023-02-06T16:55:05.625Z,10.50
2023-02-06T17:00:20.651Z,10.87
2023-02-06T17:05:31.704Z,11.30
2023-02-06T17:10:39.729Z,11.80
2023-02-06T17:15:49.334Z,12.23
2023-02-06T17:20:56.364Z,13.87
2023-02-06T17:26:02.385Z,15.10
2023-02-06T17:31:10.450Z,16.30
2023-02-06T17:36:21.977Z,13.70
2023-02-06T17:41:28.032Z,15.70
2023-02-06T17:46:35.676Z,16.03
2023-02-06T17:51:42.300Z,15.87
2023-02-06T17:56:47.174Z,17.23
2023-02-06T18:01:54.822Z,19.23
2023-02-06T18:07:00.175Z,15.60
2023-02-06T18:12:05.453Z,15.10
2023-02-06T18:17:13.835Z,15.23
2023-02-06T18:22:21.912Z,15.60
2023-02-06T18:27:27.151Z,15.47
2023-02-06T18:32:37.117Z,15.47
2023-02-06T18:37:43.322Z,14.93
2023-02-06T18:42:54.769Z,14.97
2023-02-06T18:48:02.381Z,17.50
2023-02-06T18:53:07.897Z,18.67
2023-02-06T18:58:15.824Z,18.57
2023-02-06T19:03:23.362Z,19.03
2023-02-06T19:08:28.336Z,18.60
2023-02-06T19:13:34.407Z,17.90
2023-02-06T19:18:43.107Z,21.93
2023-02-06T19:23:50.458Z,18.17
2023-02-06T19:28:56.058Z,18.60
2023-02-06T19:34:06.311Z,22.30
2023-02-06T19:39:14.125Z,19.33
2023-02-06T19:44:19.142Z,19.90
2023-02-06T19:49:28.252Z,21.53
2023-02-06T19:54:33.298Z,19.43
2023-02-06T19:59:38.646Z,20.53
2023-02-06T20:04:47.365Z,18.83
2023-02-06T20:09:52.695Z,18.07
2023-02-06T20:14:58.137Z,20.23
2023-02-06T20:20:08.012Z,18.20
2023-02-06T20:25:13.691Z,18.37
2023-02-06T20:30:23.338Z,17.03
2023-02-06T20:35:32.394Z,17.63
2023-02-06T20:40:39.969Z,19.77
2023-02-06T20:45:46.372Z,19.57
2023-02-06T20:50:59.621Z,21.40
2023-02-06T20:56:04.543Z,21.63
2023-02-06T21:01:15.770Z,19.80
2023-02-06T21:06:23.791Z,19.53
2023-02-06T21:11:30.524Z,19.43
2023-02-06T21:16:37.699Z,19.10
2023-02-06T21:21:46.459Z,21.77
2023-02-06T21:26:52.220Z,24.27
2023-02-06T21:32:12.264Z,19.87
2023-02-06T21:37:22.631Z,20.00
2023-02-06T21:42:27.631Z,23.10
2023-02-06T21:47:34.881Z,21.50
2023-02-06T21:52:42.404Z,21.20
2023-02-06T21:57:47.413Z,21.43
2023-02-06T22:02:52.321Z,22.10
2023-02-06T22:07:59.902Z,21.63
2023-02-06T22:13:04.825Z,22.33
2023-02-06T22:18:10.560Z,20.23
2023-02-06T22:23:20.315Z,21.10
2023-02-06T22:28:25.188Z,21.23
2023-02-06T22:33:30.143Z,17.80
2023-02-06T22:38:38.621Z,20.77
2023-02-06T22:43:43.908Z,19.47
2023-02-06T22:48:48.950Z,20.60
2023-02-06T22:53:56.723Z,19.50
2023-02-06T22:59:03.748Z,20.77
2023-02-06T23:04:10.664Z,20.13
2023-02-06T23:09:20.590Z,19.30
2023-02-06T23:14:26.538Z,19.17
2023-02-06T23:19:31.921Z,19.73
2023-02-06T23:24:39.788Z,19.83
2023-02-06T23:29:44.689Z,20.27
2023-02-06T23:34:49.692Z,18.80
2023-02-06T23:39:57.276Z,19.27
2023-02-06T23:45:02.309Z,18.80
2023-02-06T23:50:08.225Z,20.67
2023-02-06T23:55:15.843Z,19.17
